sensor_id;sensor_type;location;lat;lon;timestamp;pressure;altitude;pressure_sealevel;temperature;humidity
5574;BME280;2563;52.242;7.956;2022-08-04T00:01:08;100495.09;;;20.06;100.00
5574;BME280;2563;52.242;7.956;2022-08-04T00:03:41;100483.19;;;20.02;100.00
5574;BME280;2563;52.242;7.956;2022-08-04T00:06:24;100480.47;;;20.04;100.00
5574;BME280;2563;52.242;7.956;2022-08-04T00:09:02;100472.00;;;20.00;100.00
5574;BME280;2563;52.242;7.956;2022-08-04T00:11:32;100470.50;;;19.96;100.00
5574;BME280;2563;52.242;7.956;2022-08-04T00:14:02;100474.63;;;20.00;100.00
5574;BME280;2563;52.242;7.956;2022-08-04T00:16:29;100468.72;;;19.96;100.00
5574;BME280;2563;52.242;7.956;2022-08-04T00:19:34;100467.06;;;19.95;100.00
5574;BME280;2563;52.242;7.956;2022-08-04T00:22:03;100459.53;;;19.91;100.00
5574;BME280;2563;52.242;7.956;2022-08-04T00:24:30;100452.63;;;19.90;100.00
5574;BME280;2563;52.242;7.956;2022-08-04T00:26:56;100455.97;;;19.92;100.00
5574;BME280;2563;52.242;7.956;2022-08-04T00:29:21;100448.56;;;19.98;100.00
5574;BME280;2563;52.242;7.956;2022-08-04T00:31:48;100446.41;;;20.05;100.00
5574;BME280;2563;52.242;7.956;2022-08-04T00:34:13;100454.53;;;20.01;100.00
5574;BME280;2563;52.242;7.956;2022-08-04T00:36:42;100452.56;;;20.04;100.00
5574;BME280;2563;52.242;7.956;2022-08-04T00:39:10;100457.50;;;20.09;100.00
5574;BME280;2563;52.242;7.956;2022-08-04T00:46:58;100448.00;;;20.21;100.00
5574;BME280;2563;52.242;7.956;2022-08-04T00:49:32;100453.97;;;20.23;100.00
5574;BME280;2563;52.242;7.956;2022-08-04T00:52:22;100459.72;;;20.28;100.00
5574;BME280;2563;52.242;7.956;2022-08-04T01:00:59;100457.38;;;20.50;100.00
5574;BME280;2563;52.242;7.956;2022-08-04T01:03:55;100459.41;;;20.59;100.00
5574;BME280;2563;52.242;7.956;2022-08-04T01:17:05;100464.09;;;20.67;100.00
5574;BME280;2563;52.242;7.956;2022-08-04T01:30:11;100457.59;;;20.73;100.00
5574;BME280;2563;52.242;7.956;2022-08-04T01:32:40;100456.47;;;20.77;100.00
5574;BME280;2563;52.242;7.956;2022-08-04T01:35:34;100458.97;;;20.78;100.00
5574;BME280;2563;52.242;7.956;2022-08-04T01:40:41;100454.25;;;20.71;100.00
5574;BME280;2563;52.242;7.956;2022-08-04T01:43:09;100463.66;;;20.73;100.00
5574;BME280;2563;52.242;7.956;2022-08-04T01:45:37;100461.78;;;20.75;100.00
5574;BME280;2563;52.242;7.956;2022-08-04T01:48:06;100462.66;;;20.76;100.00
5574;BME280;2563;52.242;7.956;2022-08-04T01:50:35;100458.13;;;20.78;100.00
5574;BME280;2563;52.242;7.956;2022-08-04T01:53:01;100460.56;;;20.81;100.00
5574;BME280;2563;52.242;7.956;2022-08-04T01:55:29;100458.84;;;20.80;100.00
5574;BME280;2563;52.242;7.956;2022-08-04T01:57:58;100459.38;;;20.85;100.00
5574;BME280;2563;52.242;7.956;2022-08-04T02:00:26;100451.53;;;20.85;100.00
5574;BME280;2563;52.242;7.956;2022-08-04T02:02:52;100456.56;;;20.88;100.00
5574;BME280;2563;52.242;7.956;2022-08-04T02:05:20;100450.59;;;20.86;100.00
5574;BME280;2563;52.242;7.956;2022-08-04T02:08:20;100451.53;;;20.85;100.00
5574;BME280;2563;52.242;7.956;2022-08-04T02:10:53;100446.28;;;20.85;100.00
5574;BME280;2563;52.242;7.956;2022-08-04T02:13:38;100435.81;;;20.85;100.00
5574;BME280;2563;52.242;7.956;2022-08-04T02:16:27;100440.13;;;20.86;100.00
5574;BME280;2563;52.242;7.956;2022-08-04T02:19:03;100439.19;;;20.87;100.00
5574;BME280;2563;52.242;7.956;2022-08-04T02:21:33;100444.22;;;20.90;100.00
5574;BME280;2563;52.242;7.956;2022-08-04T02:24:05;100433.03;;;20.88;100.00
5574;BME280;2563;52.242;7.956;2022-08-04T02:26:32;100433.53;;;20.93;100.00
5574;BME280;2563;52.242;7.956;2022-08-04T02:32:11;100428.31;;;20.93;100.00
5574;BME280;2563;52.242;7.956;2022-08-04T02:37:27;100426.84;;;20.89;100.00
5574;BME280;2563;52.242;7.956;2022-08-04T02:39:58;100427.78;;;20.88;100.00
5574;BME280;2563;52.242;7.956;2022-08-04T02:42:23;100421.59;;;20.89;100.00
5574;BME280;2563;52.242;7.956;2022-08-04T02:44:50;100421.59;;;20.89;100.00
5574;BME280;2563;52.242;7.956;2022-08-04T02:47:19;100411.34;;;20.86;100.00
5574;BME280;2563;52.242;7.956;2022-08-04T02:49:45;100419.44;;;20.83;100.00
5574;BME280;2563;52.242;7.956;2022-08-04T02:52:11;100418.78;;;20.79;100.00
5574;BME280;2563;52.242;7.956;2022-08-04T02:54:40;100412.00;;;20.77;100.00
5574;BME280;2563;52.242;7.956;2022-08-04T02:57:13;100409.69;;;20.72;100.00
5574;BME280;2563;52.242;7.956;2022-08-04T03:02:07;100397.16;;;20.65;100.00
5574;BME280;2563;52.242;7.956;2022-08-04T03:04:44;100393.69;;;20.64;100.00
5574;BME280;2563;52.242;7.956;2022-08-04T03:10:18;100397.97;;;20.65;100.00
5574;BME280;2563;52.242;7.956;2022-08-04T03:13:38;100395.44;;;20.64;100.00
5574;BME280;2563;52.242;7.956;2022-08-04T03:16:31;100393.06;;;20.60;100.00
5574;BME280;2563;52.242;7.956;2022-08-04T03:32:43;100379.44;;;20.43;100.00
5574;BME280;2563;52.242;7.956;2022-08-04T03:54:51;100348.69;;;20.46;100.00
5574;BME280;2563;52.242;7.956;2022-08-04T04:00:05;100344.19;;;20.48;100.00
5574;BME280;2563;52.242;7.956;2022-08-04T04:05:17;100338.56;;;20.54;100.00
5574;BME280;2563;52.242;7.956;2022-08-04T04:24:05;100330.19;;;20.62;100.00
5574;BME280;2563;52.242;7.956;2022-08-04T04:26:56;100336.25;;;20.63;100.00
5574;BME280;2563;52.242;7.956;2022-08-04T04:34:56;100334.25;;;20.79;100.00
5574;BME280;2563;52.242;7.956;2022-08-04T04:43:41;100335.16;;;20.78;100.00
5574;BME280;2563;52.242;7.956;2022-08-04T04:46:31;100337.47;;;20.82;100.00
5574;BME280;2563;52.242;7.956;2022-08-04T04:51:56;100332.03;;;20.86;100.00
5574;BME280;2563;52.242;7.956;2022-08-04T04:54:32;100322.41;;;20.86;100.00
5574;BME280;2563;52.242;7.956;2022-08-04T04:57:12;100321.34;;;20.89;100.00
5574;BME280;2563;52.242;7.956;2022-08-04T05:13:43;100322.53;;;21.09;100.00
5574;BME280;2563;52.242;7.956;2022-08-04T05:16:19;100316.88;;;21.15;100.00
5574;BME280;2563;52.242;7.956;2022-08-04T05:21:41;100321.09;;;21.29;100.00
5574;BME280;2563;52.242;7.956;2022-08-04T05:24:10;100320.41;;;21.38;100.00
5574;BME280;2563;52.242;7.956;2022-08-04T05:26:43;100316.56;;;21.43;100.00
5574;BME280;2563;52.242;7.956;2022-08-04T05:29:33;100311.56;;;21.52;100.00
5574;BME280;2563;52.242;7.956;2022-08-04T05:31:59;100312.94;;;21.57;100.00
5574;BME280;2563;52.242;7.956;2022-08-04T05:34:34;100314.13;;;21.64;100.00
5574;BME280;2563;52.242;7.956;2022-08-04T05:37:08;100317.25;;;21.70;100.00
5574;BME280;2563;52.242;7.956;2022-08-04T05:40:02;100317.72;;;21.75;100.00
5574;BME280;2563;52.242;7.956;2022-08-04T05:42:30;100316.56;;;21.79;100.00
5574;BME280;2563;52.242;7.956;2022-08-04T05:44:57;100319.44;;;21.87;100.00
5574;BME280;2563;52.242;7.956;2022-08-04T05:47:24;100313.50;;;21.96;100.00
5574;BME280;2563;52.242;7.956;2022-08-04T05:49:51;100318.88;;;22.06;100.00
5574;BME280;2563;52.242;7.956;2022-08-04T05:52:17;100319.00;;;22.16;100.00
5574;BME280;2563;52.242;7.956;2022-08-04T05:54:44;100326.06;;;22.26;100.00
5574;BME280;2563;52.242;7.956;2022-08-04T05:57:10;100326.81;;;22.40;100.00
5574;BME280;2563;52.242;7.956;2022-08-04T05:59:38;100337.06;;;22.54;100.00
5574;BME280;2563;52.242;7.956;2022-08-04T06:02:06;100334.91;;;22.70;100.00
5574;BME280;2563;52.242;7.956;2022-08-04T06:04:36;100340.84;;;22.84;100.00
5574;BME280;2563;52.242;7.956;2022-08-04T06:07:02;100343.56;;;22.93;100.00
5574;BME280;2563;52.242;7.956;2022-08-04T06:09:29;100346.22;;;23.05;100.00
5574;BME280;2563;52.242;7.956;2022-08-04T06:12:01;100352.28;;;23.17;100.00
5574;BME280;2563;52.242;7.956;2022-08-04T06:14:31;100359.41;;;23.26;100.00
5574;BME280;2563;52.242;7.956;2022-08-04T06:16:58;100361.06;;;23.38;100.00
5574;BME280;2563;52.242;7.956;2022-08-04T06:19:26;100367.47;;;23.45;100.00
5574;BME280;2563;52.242;7.956;2022-08-04T06:21:55;100372.69;;;23.56;100.00
5574;BME280;2563;52.242;7.956;2022-08-04T06:24:25;100370.38;;;23.63;100.00
5574;BME280;2563;52.242;7.956;2022-08-04T06:26:52;100376.22;;;23.67;100.00
5574;BME280;2563;52.242;7.956;2022-08-04T06:29:20;100377.88;;;23.68;100.00
5574;BME280;2563;52.242;7.956;2022-08-04T06:31:51;100383.84;;;23.70;100.00
5574;BME280;2563;52.242;7.956;2022-08-04T06:34:27;100390.47;;;23.75;100.00
5574;BME280;2563;52.242;7.956;2022-08-04T06:36:53;100390.53;;;23.85;100.00
5574;BME280;2563;52.242;7.956;2022-08-04T06:39:21;100397.19;;;23.89;100.00
5574;BME280;2563;52.242;7.956;2022-08-04T06:41:49;100388.34;;;23.90;100.00
5574;BME280;2563;52.242;7.956;2022-08-04T06:44:15;100394.06;;;23.95;100.00
5574;BME280;2563;52.242;7.956;2022-08-04T06:46:43;100390.50;;;24.06;100.00
5574;BME280;2563;52.242;7.956;2022-08-04T06:49:09;100390.28;;;24.09;100.00
5574;BME280;2563;52.242;7.956;2022-08-04T06:51:36;100395.06;;;24.25;100.00
5574;BME280;2563;52.242;7.956;2022-08-04T06:54:03;100393.28;;;24.47;100.00
5574;BME280;2563;52.242;7.956;2022-08-04T06:56:30;100394.94;;;24.69;100.00
5574;BME280;2563;52.242;7.956;2022-08-04T06:58:58;100398.56;;;24.77;100.00
5574;BME280;2563;52.242;7.956;2022-08-04T07:01:25;100397.75;;;24.87;100.00
5574;BME280;2563;52.242;7.956;2022-08-04T07:03:52;100397.66;;;24.98;100.00
5574;BME280;2563;52.242;7.956;2022-08-04T07:06:20;100395.28;;;24.95;100.00
5574;BME280;2563;52.242;7.956;2022-08-04T07:08:46;100397.22;;;24.93;100.00
5574;BME280;2563;52.242;7.956;2022-08-04T07:11:12;100399.19;;;25.00;100.00
5574;BME280;2563;52.242;7.956;2022-08-04T07:13:39;100401.44;;;25.15;100.00
5574;BME280;2563;52.242;7.956;2022-08-04T07:16:06;100389.28;;;25.23;100.00
5574;BME280;2563;52.242;7.956;2022-08-04T07:18:31;100397.63;;;25.29;100.00
5574;BME280;2563;52.242;7.956;2022-08-04T07:20:57;100407.03;;;25.21;100.00
5574;BME280;2563;52.242;7.956;2022-08-04T07:23:23;100406.72;;;25.15;100.00
5574;BME280;2563;52.242;7.956;2022-08-04T07:25:51;100409.34;;;25.15;100.00
5574;BME280;2563;52.242;7.956;2022-08-04T07:28:18;100414.47;;;25.16;100.00
5574;BME280;2563;52.242;7.956;2022-08-04T07:30:44;100404.41;;;25.21;100.00
5574;BME280;2563;52.242;7.956;2022-08-04T07:33:10;100411.25;;;25.43;100.00
5574;BME280;2563;52.242;7.956;2022-08-04T07:35:36;100409.97;;;25.47;100.00
5574;BME280;2563;52.242;7.956;2022-08-04T07:38:02;100412.19;;;25.52;100.00
5574;BME280;2563;52.242;7.956;2022-08-04T07:40:28;100402.06;;;25.47;100.00
5574;BME280;2563;52.242;7.956;2022-08-04T07:42:54;100404.75;;;25.57;100.00
5574;BME280;2563;52.242;7.956;2022-08-04T07:45:21;100404.88;;;25.65;100.00
5574;BME280;2563;52.242;7.956;2022-08-04T07:47:47;100406.59;;;25.86;100.00
5574;BME280;2563;52.242;7.956;2022-08-04T07:50:13;100397.09;;;26.13;100.00
5574;BME280;2563;52.242;7.956;2022-08-04T07:52:39;100391.13;;;26.20;100.00
5574;BME280;2563;52.242;7.956;2022-08-04T07:55:04;100401.28;;;26.62;100.00
5574;BME280;2563;52.242;7.956;2022-08-04T07:57:31;100402.34;;;27.07;100.00
5574;BME280;2563;52.242;7.956;2022-08-04T07:59:56;100416.00;;;27.48;100.00
5574;BME280;2563;52.242;7.956;2022-08-04T08:02:22;100415.50;;;27.80;100.00
5574;BME280;2563;52.242;7.956;2022-08-04T08:04:48;100412.84;;;27.98;100.00
5574;BME280;2563;52.242;7.956;2022-08-04T08:07:13;100417.81;;;28.01;100.00
5574;BME280;2563;52.242;7.956;2022-08-04T08:09:38;100419.41;;;28.12;100.00
5574;BME280;2563;52.242;7.956;2022-08-04T08:12:06;100407.97;;;28.55;100.00
5574;BME280;2563;52.242;7.956;2022-08-04T08:14:32;100411.97;;;28.59;100.00
5574;BME280;2563;52.242;7.956;2022-08-04T08:17:00;100413.72;;;28.85;100.00
5574;BME280;2563;52.242;7.956;2022-08-04T08:19:33;100411.44;;;28.98;100.00
5574;BME280;2563;52.242;7.956;2022-08-04T08:22:00;100412.19;;;29.09;100.00
5574;BME280;2563;52.242;7.956;2022-08-04T08:24:27;100419.19;;;29.26;100.00
5574;BME280;2563;52.242;7.956;2022-08-04T08:26:52;100418.56;;;29.48;100.00
5574;BME280;2563;52.242;7.956;2022-08-04T08:29:18;100406.03;;;29.67;100.00
5574;BME280;2563;52.242;7.956;2022-08-04T08:31:44;100411.66;;;29.80;100.00
5574;BME280;2563;52.242;7.956;2022-08-04T08:34:11;100404.69;;;29.96;100.00
5574;BME280;2563;52.242;7.956;2022-08-04T08:36:56;100393.03;;;30.21;100.00
5574;BME280;2563;52.242;7.956;2022-08-04T08:39:56;100408.09;;;30.45;100.00
5574;BME280;2563;52.242;7.956;2022-08-04T08:45:23;100397.22;;;30.80;100.00
5574;BME280;2563;52.242;7.956;2022-08-04T09:01:30;100391.63;;;32.80;100.00
5574;BME280;2563;52.242;7.956;2022-08-04T09:10:26;100387.81;;;33.91;100.00
5574;BME280;2563;52.242;7.956;2022-08-04T09:15:35;100386.50;;;34.36;100.00
5574;BME280;2563;52.242;7.956;2022-08-04T09:18:09;100384.25;;;34.75;96.86
5574;BME280;2563;52.242;7.956;2022-08-04T09:24:05;100378.13;;;34.94;93.04
5574;BME280;2563;52.242;7.956;2022-08-04T09:32:12;100369.19;;;35.42;90.63
5574;BME280;2563;52.242;7.956;2022-08-04T09:34:42;100369.19;;;35.42;87.00
5574;BME280;2563;52.242;7.956;2022-08-04T09:37:56;100367.97;;;35.91;89.26
5574;BME280;2563;52.242;7.956;2022-08-04T09:45:47;100360.81;;;36.56;80.57
5574;BME280;2563;52.242;7.956;2022-08-04T09:48:33;100360.31;;;36.79;82.94
5574;BME280;2563;52.242;7.956;2022-08-04T09:51:02;100359.47;;;36.27;78.02
5574;BME280;2563;52.242;7.956;2022-08-04T09:54:00;100363.63;;;35.96;80.57
5574;BME280;2563;52.242;7.956;2022-08-04T09:56:44;100359.22;;;36.42;77.12
5574;BME280;2563;52.242;7.956;2022-08-04T10:01:42;100356.84;;;37.11;76.86
5574;BME280;2563;52.242;7.956;2022-08-04T10:04:12;100355.56;;;37.20;74.53
5574;BME280;2563;52.242;7.956;2022-08-04T10:15:32;100352.06;;;37.44;68.65
5574;BME280;2563;52.242;7.956;2022-08-04T10:23:14;100350.41;;;36.22;73.78
5574;BME280;2563;52.242;7.956;2022-08-04T10:28:50;100354.38;;;35.72;79.32
5574;BME280;2563;52.242;7.956;2022-08-04T10:31:29;100357.44;;;36.03;78.91
5574;BME280;2563;52.242;7.956;2022-08-04T10:36:47;100344.47;;;38.10;83.69
5574;BME280;2563;52.242;7.956;2022-08-04T10:39:16;100338.19;;;38.16;74.22
5574;BME280;2563;52.242;7.956;2022-08-04T10:41:55;100342.16;;;38.32;70.98
5574;BME280;2563;52.242;7.956;2022-08-04T10:44:43;100334.44;;;38.54;71.67
5574;BME280;2563;52.242;7.956;2022-08-04T10:47:18;100338.94;;;38.60;67.90
5574;BME280;2563;52.242;7.956;2022-08-04T10:49:53;100332.59;;;38.36;66.73
5574;BME280;2563;52.242;7.956;2022-08-04T10:52:37;100336.97;;;38.30;70.26
5574;BME280;2563;52.242;7.956;2022-08-04T10:55:23;100337.75;;;38.19;65.05
5574;BME280;2563;52.242;7.956;2022-08-04T10:57:58;100339.34;;;37.83;67.31
5574;BME280;2563;52.242;7.956;2022-08-04T11:00:27;100347.09;;;37.48;70.85
5574;BME280;2563;52.242;7.956;2022-08-04T11:08:17;100348.34;;;38.33;66.97
5574;BME280;2563;52.242;7.956;2022-08-04T11:13:29;100343.94;;;38.87;67.39
5574;BME280;2563;52.242;7.956;2022-08-04T11:16:01;100342.66;;;38.89;63.99
5574;BME280;2563;52.242;7.956;2022-08-04T11:18:35;100341.56;;;38.79;62.61
5574;BME280;2563;52.242;7.956;2022-08-04T11:21:11;100343.25;;;39.33;69.89
5574;BME280;2563;52.242;7.956;2022-08-04T11:23:43;100342.25;;;39.82;63.50
5574;BME280;2563;52.242;7.956;2022-08-04T11:26:26;100327.66;;;39.24;56.58
5574;BME280;2563;52.242;7.956;2022-08-04T11:29:06;100338.56;;;39.29;58.27
5574;BME280;2563;52.242;7.956;2022-08-04T11:31:39;100342.59;;;39.62;58.42
5574;BME280;2563;52.242;7.956;2022-08-04T11:34:18;100340.94;;;39.96;55.58
5574;BME280;2563;52.242;7.956;2022-08-04T11:39:37;100336.91;;;39.16;62.38
5574;BME280;2563;52.242;7.956;2022-08-04T11:44:48;100356.88;;;39.50;55.78
5574;BME280;2563;52.242;7.956;2022-08-04T11:52:42;100350.38;;;39.28;56.44
5574;BME280;2563;52.242;7.956;2022-08-04T11:55:10;100352.06;;;39.52;53.79
5574;BME280;2563;52.242;7.956;2022-08-04T11:57:37;100352.22;;;39.81;54.75
5574;BME280;2563;52.242;7.956;2022-08-04T12:00:05;100346.59;;;39.71;50.95
5574;BME280;2563;52.242;7.956;2022-08-04T12:05:06;100355.88;;;39.21;55.24
5574;BME280;2563;52.242;7.956;2022-08-04T12:08:04;100365.22;;;37.78;57.81
5574;BME280;2563;52.242;7.956;2022-08-04T12:16:01;100372.03;;;36.85;65.92
5574;BME280;2563;52.242;7.956;2022-08-04T12:21:06;100373.41;;;37.01;71.23
5574;BME280;2563;52.242;7.956;2022-08-04T12:23:37;100369.25;;;37.05;73.49
5574;BME280;2563;52.242;7.956;2022-08-04T12:26:09;100371.63;;;37.27;77.16
5574;BME280;2563;52.242;7.956;2022-08-04T12:28:40;100374.81;;;37.03;74.79
5574;BME280;2563;52.242;7.956;2022-08-04T12:31:30;100372.50;;;37.45;72.13
5574;BME280;2563;52.242;7.956;2022-08-04T12:34:15;100383.09;;;37.40;66.79
5574;BME280;2563;52.242;7.956;2022-08-04T12:36:43;100384.97;;;36.56;63.75
5574;BME280;2563;52.242;7.956;2022-08-04T12:39:21;100394.19;;;36.74;64.92
5574;BME280;2563;52.242;7.956;2022-08-04T12:42:05;100386.91;;;37.26;66.40
5574;BME280;2563;52.242;7.956;2022-08-04T12:44:34;100393.53;;;37.55;63.15
5574;BME280;2563;52.242;7.956;2022-08-04T12:47:02;100385.44;;;36.85;63.21
5574;BME280;2563;52.242;7.956;2022-08-04T12:49:31;100394.47;;;36.39;64.34
5574;BME280;2563;52.242;7.956;2022-08-04T12:51:58;100394.78;;;35.64;65.73
5574;BME280;2563;52.242;7.956;2022-08-04T12:54:25;100403.41;;;35.79;67.68
5574;BME280;2563;52.242;7.956;2022-08-04T12:56:52;100394.31;;;35.41;68.55
5574;BME280;2563;52.242;7.956;2022-08-04T12:59:21;100408.09;;;35.51;72.87
5574;BME280;2563;52.242;7.956;2022-08-04T13:01:47;100408.28;;;35.29;72.11
5574;BME280;2563;52.242;7.956;2022-08-04T13:04:22;100404.56;;;35.17;72.85
5574;BME280;2563;52.242;7.956;2022-08-04T13:07:00;100405.69;;;34.88;74.43
5574;BME280;2563;52.242;7.956;2022-08-04T13:09:32;100414.28;;;34.42;74.75
5574;BME280;2563;52.242;7.956;2022-08-04T13:12:02;100415.72;;;33.88;77.01
5574;BME280;2563;52.242;7.956;2022-08-04T13:14:34;100419.13;;;33.75;79.20
5574;BME280;2563;52.242;7.956;2022-08-04T13:17:01;100416.75;;;33.87;80.41
5574;BME280;2563;52.242;7.956;2022-08-04T13:19:28;100429.88;;;33.60;82.94
5574;BME280;2563;52.242;7.956;2022-08-04T13:21:55;100445.44;;;33.20;87.65
5574;BME280;2563;52.242;7.956;2022-08-04T13:24:22;100440.31;;;32.45;92.20
5574;BME280;2563;52.242;7.956;2022-08-04T13:27:01;100444.75;;;31.99;99.85
5574;BME280;2563;52.242;7.956;2022-08-04T13:29:49;100471.56;;;32.13;100.00
5574;BME280;2563;52.242;7.956;2022-08-04T13:32:19;100468.34;;;31.56;100.00
5574;BME280;2563;52.242;7.956;2022-08-04T13:34:48;100471.34;;;31.14;100.00
5574;BME280;2563;52.242;7.956;2022-08-04T13:37:15;100467.88;;;31.13;100.00
5574;BME280;2563;52.242;7.956;2022-08-04T13:39:45;100467.88;;;31.05;100.00
5574;BME280;2563;52.242;7.956;2022-08-04T13:42:12;100477.47;;;30.75;100.00
5574;BME280;2563;52.242;7.956;2022-08-04T13:44:39;100470.38;;;30.26;100.00
5574;BME280;2563;52.242;7.956;2022-08-04T13:47:21;100477.94;;;29.56;100.00
5574;BME280;2563;52.242;7.956;2022-08-04T13:50:18;100473.88;;;29.86;100.00
5574;BME280;2563;52.242;7.956;2022-08-04T13:52:44;100470.38;;;29.94;100.00
5574;BME280;2563;52.242;7.956;2022-08-04T13:55:20;100478.84;;;30.05;100.00
5574;BME280;2563;52.242;7.956;2022-08-04T13:57:49;100483.66;;;30.51;100.00
5574;BME280;2563;52.242;7.956;2022-08-04T14:00:17;100475.78;;;30.82;100.00
5574;BME280;2563;52.242;7.956;2022-08-04T14:02:48;100487.31;;;30.34;100.00
5574;BME280;2563;52.242;7.956;2022-08-04T14:05:23;100482.66;;;29.95;100.00
5574;BME280;2563;52.242;7.956;2022-08-04T14:07:54;100488.88;;;29.61;100.00
5574;BME280;2563;52.242;7.956;2022-08-04T14:10:21;100486.53;;;29.50;100.00
5574;BME280;2563;52.242;7.956;2022-08-04T14:12:49;100489.03;;;29.43;100.00
5574;BME280;2563;52.242;7.956;2022-08-04T14:15:31;100493.19;;;29.54;100.00
5574;BME280;2563;52.242;7.956;2022-08-04T14:23:25;100477.03;;;30.30;100.00
5574;BME280;2563;52.242;7.956;2022-08-04T14:25:51;100478.00;;;30.05;100.00
5574;BME280;2563;52.242;7.956;2022-08-04T14:28:30;100472.19;;;29.68;100.00
5574;BME280;2563;52.242;7.956;2022-08-04T14:31:20;100468.19;;;29.64;100.00
5574;BME280;2563;52.242;7.956;2022-08-04T14:33:46;100459.69;;;29.61;100.00
5574;BME280;2563;52.242;7.956;2022-08-04T14:36:12;100459.38;;;29.47;100.00
5574;BME280;2563;52.242;7.956;2022-08-04T14:38:52;100462.50;;;29.43;100.00
5574;BME280;2563;52.242;7.956;2022-08-04T14:41:24;100473.69;;;29.20;100.00
5574;BME280;2563;52.242;7.956;2022-08-04T14:43:55;100470.59;;;29.41;100.00
5574;BME280;2563;52.242;7.956;2022-08-04T14:46:22;100467.31;;;29.05;100.00
5574;BME280;2563;52.242;7.956;2022-08-04T14:49:10;100480.00;;;28.93;100.00
5574;BME280;2563;52.242;7.956;2022-08-04T14:51:44;100467.41;;;29.30;100.00
5574;BME280;2563;52.242;7.956;2022-08-04T14:54:12;100459.41;;;29.13;100.00
5574;BME280;2563;52.242;7.956;2022-08-04T14:56:39;100452.44;;;30.12;100.00
5574;BME280;2563;52.242;7.956;2022-08-04T14:59:07;100448.06;;;30.85;100.00
5574;BME280;2563;52.242;7.956;2022-08-04T15:01:35;100447.50;;;30.17;100.00
5574;BME280;2563;52.242;7.956;2022-08-04T15:04:02;100441.16;;;30.51;100.00
5574;BME280;2563;52.242;7.956;2022-08-04T15:06:29;100439.34;;;30.99;100.00
5574;BME280;2563;52.242;7.956;2022-08-04T15:08:58;100439.97;;;31.09;100.00
5574;BME280;2563;52.242;7.956;2022-08-04T15:11:25;100435.50;;;31.33;100.00
5574;BME280;2563;52.242;7.956;2022-08-04T15:13:52;100443.19;;;31.28;100.00
5574;BME280;2563;52.242;7.956;2022-08-04T15:16:18;100442.94;;;31.92;100.00
5574;BME280;2563;52.242;7.956;2022-08-04T15:18:44;100440.34;;;31.61;100.00
5574;BME280;2563;52.242;7.956;2022-08-04T15:21:11;100441.31;;;31.36;100.00
5574;BME280;2563;52.242;7.956;2022-08-04T15:23:36;100442.38;;;30.88;100.00
5574;BME280;2563;52.242;7.956;2022-08-04T15:26:03;100442.69;;;31.24;100.00
5574;BME280;2563;52.242;7.956;2022-08-04T15:28:30;100451.13;;;31.36;100.00
5574;BME280;2563;52.242;7.956;2022-08-04T15:31:00;100447.03;;;30.94;100.00
5574;BME280;2563;52.242;7.956;2022-08-04T15:33:27;100448.88;;;30.77;100.00
5574;BME280;2563;52.242;7.956;2022-08-04T15:36:11;100456.03;;;30.68;100.00
5574;BME280;2563;52.242;7.956;2022-08-04T15:38:43;100460.34;;;31.25;100.00
5574;BME280;2563;52.242;7.956;2022-08-04T15:41:25;100457.41;;;31.89;100.00
5574;BME280;2563;52.242;7.956;2022-08-04T15:49:26;100468.88;;;30.24;100.00
5574;BME280;2563;52.242;7.956;2022-08-04T15:52:02;100472.19;;;29.68;100.00
5574;BME280;2563;52.242;7.956;2022-08-04T15:54:28;100469.25;;;29.37;100.00
5574;BME280;2563;52.242;7.956;2022-08-04T15:56:54;100467.97;;;29.50;100.00
5574;BME280;2563;52.242;7.956;2022-08-04T16:08:00;100486.63;;;28.63;100.00
5574;BME280;2563;52.242;7.956;2022-08-04T16:13:06;100489.09;;;28.38;100.00
5574;BME280;2563;52.242;7.956;2022-08-04T16:18:07;100486.03;;;28.07;100.00
5574;BME280;2563;52.242;7.956;2022-08-04T16:20:34;100491.53;;;27.96;100.00
5574;BME280;2563;52.242;7.956;2022-08-04T16:23:15;100499.50;;;27.50;100.00
5574;BME280;2563;52.242;7.956;2022-08-04T16:25:46;100489.75;;;27.51;100.00
5574;BME280;2563;52.242;7.956;2022-08-04T16:31:00;100504.69;;;27.42;100.00
5574;BME280;2563;52.242;7.956;2022-08-04T16:33:30;100507.66;;;27.29;100.00
5574;BME280;2563;52.242;7.956;2022-08-04T16:35:56;100505.94;;;27.20;100.00
5574;BME280;2563;52.242;7.956;2022-08-04T16:38:21;100499.34;;;27.24;100.00
5574;BME280;2563;52.242;7.956;2022-08-04T16:40:57;100510.94;;;27.13;100.00
5574;BME280;2563;52.242;7.956;2022-08-04T16:43:28;100512.06;;;27.11;100.00
5574;BME280;2563;52.242;7.956;2022-08-04T16:46:01;100506.94;;;27.00;100.00
5574;BME280;2563;52.242;7.956;2022-08-04T16:53:26;100513.84;;;27.20;100.00
5574;BME280;2563;52.242;7.956;2022-08-04T16:55:55;100520.50;;;27.14;100.00
5574;BME280;2563;52.242;7.956;2022-08-04T16:58:35;100521.00;;;26.90;100.00
5574;BME280;2563;52.242;7.956;2022-08-04T17:01:09;100510.69;;;26.97;100.00
5574;BME280;2563;52.242;7.956;2022-08-04T17:03:39;100501.47;;;27.11;100.00
5574;BME280;2563;52.242;7.956;2022-08-04T17:06:11;100511.81;;;27.32;100.00
5574;BME280;2563;52.242;7.956;2022-08-04T17:08:39;100506.75;;;27.21;100.00
5574;BME280;2563;52.242;7.956;2022-08-04T17:11:05;100505.59;;;27.51;100.00
5574;BME280;2563;52.242;7.956;2022-08-04T17:13:35;100501.56;;;27.29;100.00
5574;BME280;2563;52.242;7.956;2022-08-04T17:16:03;100509.31;;;27.86;100.00
5574;BME280;2563;52.242;7.956;2022-08-04T17:18:31;100513.34;;;27.62;100.00
5574;BME280;2563;52.242;7.956;2022-08-04T17:21:09;100516.44;;;27.30;100.00
5574;BME280;2563;52.242;7.956;2022-08-04T17:23:36;100510.22;;;27.21;100.00
5574;BME280;2563;52.242;7.956;2022-08-04T17:26:08;100506.34;;;27.71;100.00
5574;BME280;2563;52.242;7.956;2022-08-04T17:28:35;100529.66;;;28.21;100.00
5574;BME280;2563;52.242;7.956;2022-08-04T17:31:01;100529.22;;;27.34;100.00
5574;BME280;2563;52.242;7.956;2022-08-04T17:33:27;100522.00;;;26.89;100.00
5574;BME280;2563;52.242;7.956;2022-08-04T17:35:58;100512.13;;;26.91;100.00
5574;BME280;2563;52.242;7.956;2022-08-04T17:38:45;100512.00;;;26.83;100.00
5574;BME280;2563;52.242;7.956;2022-08-04T17:41:13;100510.00;;;26.95;100.00
5574;BME280;2563;52.242;7.956;2022-08-04T17:54:02;100530.13;;;26.20;100.00